createdAt,value
2018-10-18T00:02:06.959Z,13.10
2018-10-18T00:04:35.702Z,12.70
2018-10-18T00:07:04.551Z,11.40
2018-10-18T00:09:33.199Z,11.10
2018-10-18T00:12:01.820Z,12.10
2018-10-18T00:14:30.540Z,13.73
2018-10-18T00:16:59.077Z,11.67
2018-10-18T00:19:27.685Z,13.37
2018-10-18T00:21:56.228Z,12.23
2018-10-18T00:24:24.788Z,13.13
2018-10-18T00:26:53.364Z,12.57
2018-10-18T00:29:21.989Z,13.30
2018-10-18T00:31:50.585Z,13.70
2018-10-18T00:34:19.093Z,14.10
2018-10-18T00:36:47.776Z,14.00
2018-10-18T00:39:16.399Z,12.80
2018-10-18T00:41:45.280Z,13.20
2018-10-18T00:44:13.996Z,12.07
2018-10-18T00:46:42.560Z,14.63
2018-10-18T00:49:11.148Z,13.17
2018-10-18T00:51:39.694Z,13.80
2018-10-18T00:54:08.744Z,14.97
2018-10-18T00:56:37.348Z,12.77
2018-10-18T00:59:05.956Z,15.37
2018-10-18T01:01:34.487Z,13.50
2018-10-18T01:04:03.161Z,13.70
2018-10-18T01:06:31.972Z,13.80
2018-10-18T01:09:00.528Z,13.70
2018-10-18T01:11:29.152Z,14.00
2018-10-18T01:13:57.982Z,12.03
2018-10-18T01:16:26.572Z,12.37
2018-10-18T01:18:55.085Z,12.90
2018-10-18T01:21:23.774Z,13.37
2018-10-18T01:23:52.628Z,13.17
2018-10-18T01:26:21.153Z,13.57
2018-10-18T01:28:49.979Z,12.77
2018-10-18T01:31:18.651Z,13.50
2018-10-18T01:33:47.225Z,13.00
2018-10-18T01:36:16.013Z,14.40
2018-10-18T01:38:44.519Z,12.47
2018-10-18T01:41:13.084Z,13.07
2018-10-18T01:43:41.838Z,15.27
2018-10-18T01:46:10.792Z,14.33
2018-10-18T01:48:39.345Z,13.70
2018-10-18T01:51:08.054Z,12.63
2018-10-18T01:53:36.732Z,13.93
2018-10-18T01:56:05.724Z,12.87
2018-10-18T01:58:34.452Z,12.23
2018-10-18T02:01:03.010Z,13.63
2018-10-18T02:03:31.588Z,13.80
2018-10-18T02:06:00.350Z,12.40
2018-10-18T02:08:29.040Z,12.83
2018-10-18T02:10:57.624Z,12.07
2018-10-18T02:13:26.338Z,11.73
2018-10-18T02:15:55.251Z,12.67
2018-10-18T02:18:24.185Z,12.27
2018-10-18T02:20:53.152Z,12.80
2018-10-18T02:23:21.689Z,12.00
2018-10-18T02:25:50.208Z,13.80
2018-10-18T02:28:18.895Z,12.77
2018-10-18T02:30:47.501Z,14.40
2018-10-18T02:33:16.097Z,13.13
2018-10-18T02:35:44.844Z,13.00
2018-10-18T02:38:13.421Z,13.07
2018-10-18T02:40:42.039Z,11.97
2018-10-18T02:43:10.881Z,14.23
2018-10-18T02:45:39.628Z,13.10
2018-10-18T02:48:08.245Z,14.27
2018-10-18T02:50:36.765Z,12.70
2018-10-18T02:53:05.485Z,15.43
2018-10-18T02:55:34.064Z,13.60
2018-10-18T02:58:02.710Z,12.63
2018-10-18T03:00:31.319Z,15.00
2018-10-18T03:02:59.908Z,13.40
2018-10-18T03:05:28.710Z,12.10
2018-10-18T03:07:57.483Z,12.00
2018-10-18T03:10:26.010Z,14.00
2018-10-18T03:12:54.708Z,14.40
2018-10-18T03:15:23.249Z,13.80
2018-10-18T03:17:51.866Z,12.87
2018-10-18T03:20:20.524Z,13.70
2018-10-18T03:22:49.161Z,14.43
2018-10-18T03:25:17.732Z,13.87
2018-10-18T03:27:46.412Z,12.00
2018-10-18T03:30:15.170Z,15.10
2018-10-18T03:32:43.617Z,14.53
2018-10-18T03:35:12.242Z,13.83
2018-10-18T03:37:41.037Z,15.70
2018-10-18T03:40:10.268Z,16.13
2018-10-18T03:42:38.860Z,14.90
2018-10-18T03:45:07.869Z,14.83
2018-10-18T03:47:36.413Z,12.97
2018-10-18T03:50:05.093Z,14.67
2018-10-18T03:52:33.736Z,15.50
2018-10-18T03:55:02.317Z,14.97
2018-10-18T03:57:30.969Z,14.40
2018-10-18T03:59:59.531Z,14.00
2018-10-18T04:02:28.121Z,14.00
2018-10-18T04:04:56.752Z,14.93
2018-10-18T04:07:25.372Z,14.70
2018-10-18T04:09:53.929Z,14.50
2018-10-18T04:12:22.631Z,12.70
2018-10-18T04:14:51.190Z,13.77
2018-10-18T04:17:19.813Z,15.27
2018-10-18T04:19:48.557Z,14.37
2018-10-18T04:22:17.145Z,13.27
2018-10-18T04:24:45.761Z,15.60
2018-10-18T04:27:14.628Z,15.20
2018-10-18T04:29:43.194Z,14.10
2018-10-18T04:32:11.752Z,14.23
2018-10-18T04:34:40.418Z,14.63
2018-10-18T04:37:09.065Z,14.43
2018-10-18T04:39:37.568Z,14.10
2018-10-18T04:42:06.568Z,15.10
2018-10-18T04:44:35.182Z,14.97
2018-10-18T04:47:03.789Z,13.90
2018-10-18T04:49:32.505Z,14.60
2018-10-18T04:52:01.229Z,14.20
2018-10-18T04:54:29.760Z,14.67
2018-10-18T04:56:58.560Z,15.03
2018-10-18T04:59:27.288Z,14.93
2018-10-18T05:01:55.849Z,15.80
2018-10-18T05:04:24.465Z,14.77
2018-10-18T05:06:53.076Z,14.80
2018-10-18T05:09:21.729Z,14.63
2018-10-18T05:11:50.372Z,13.63
2018-10-18T05:14:18.987Z,13.93
2018-10-18T05:16:47.678Z,14.13
2018-10-18T05:19:16.609Z,14.30
2018-10-18T05:21:45.250Z,13.67
2018-10-18T05:24:13.849Z,13.67
2018-10-18T05:26:42.600Z,13.57
2018-10-18T05:29:11.248Z,14.47
2018-10-18T05:31:39.856Z,13.27
2018-10-18T05:34:08.584Z,14.80
2018-10-18T05:36:37.133Z,13.27
2018-10-18T05:39:09.725Z,15.17
2018-10-18T05:41:38.319Z,14.40
2018-10-18T05:44:06.948Z,13.37
2018-10-18T05:46:35.691Z,12.33
2018-10-18T05:49:04.326Z,12.70
2018-10-18T05:51:32.840Z,13.40
2018-10-18T05:54:01.709Z,12.20
2018-10-18T05:56:30.188Z,13.30
2018-10-18T05:58:58.812Z,14.67
2018-10-18T06:01:27.373Z,16.10
2018-10-18T06:03:55.980Z,16.50
2018-10-18T06:06:24.800Z,17.37
2018-10-18T06:08:53.615Z,17.00
2018-10-18T06:11:27.760Z,17.50
2018-10-18T06:13:56.570Z,16.70
2018-10-18T06:16:26.152Z,16.87
2018-10-18T06:18:54.803Z,15.93
2018-10-18T06:21:24.299Z,19.40
2018-10-18T06:23:52.892Z,17.03
2018-10-18T06:26:21.660Z,16.43
2018-10-18T06:28:51.441Z,17.67
2018-10-18T06:31:19.973Z,17.27
2018-10-18T06:33:49.172Z,16.50
2018-10-18T06:36:17.716Z,16.40
2018-10-18T06:38:46.373Z,18.50
2018-10-18T06:41:15.005Z,18.83
2018-10-18T06:43:43.696Z,16.37
2018-10-18T06:46:13.916Z,17.87
2018-10-18T06:48:42.956Z,18.47
2018-10-18T06:51:11.952Z,18.40
2018-10-18T06:53:41.545Z,19.30
2018-10-18T06:56:10.274Z,20.20
2018-10-18T06:58:38.988Z,18.70
2018-10-18T07:01:07.576Z,18.40
2018-10-18T07:03:36.168Z,17.40
2018-10-18T07:06:05.092Z,18.20
2018-10-18T07:08:33.635Z,19.23
2018-10-18T07:11:02.432Z,17.53
2018-10-18T07:13:30.908Z,19.20
2018-10-18T07:15:59.628Z,19.27
2018-10-18T07:18:28.215Z,19.93
2018-10-18T07:20:56.872Z,18.47
2018-10-18T07:23:25.403Z,23.03
2018-10-18T07:25:54.152Z,20.43
2018-10-18T07:28:22.885Z,20.50
2018-10-18T07:30:51.494Z,20.67
2018-10-18T07:33:20.457Z,20.00
2018-10-18T07:35:49.072Z,19.17
2018-10-18T07:38:17.616Z,23.47
2018-10-18T07:40:46.448Z,23.07
2018-10-18T07:43:15.009Z,23.93
2018-10-18T07:45:43.760Z,26.23
2018-10-18T07:48:12.629Z,26.27
2018-10-18T07:50:41.321Z,28.63
2018-10-18T07:53:10.006Z,29.47
2018-10-18T07:55:38.527Z,32.10
2018-10-18T07:58:07.354Z,35.73
2018-10-18T08:00:36.128Z,38.13
2018-10-18T08:03:05.082Z,32.90
2018-10-18T08:05:33.717Z,34.43
2018-10-18T08:08:02.353Z,33.70
2018-10-18T08:10:31.028Z,35.80
2018-10-18T08:12:59.627Z,36.40
2018-10-18T08:15:28.198Z,34.50
2018-10-18T08:17:56.834Z,41.10
2018-10-18T08:20:25.440Z,51.90
2018-10-18T08:22:54.206Z,39.40
2018-10-18T08:25:22.829Z,53.33
2018-10-18T08:27:51.398Z,53.10
2018-10-18T08:30:20.001Z,55.37
2018-10-18T08:32:48.637Z,53.87
2018-10-18T08:35:17.282Z,53.60
2018-10-18T08:37:45.918Z,51.13
2018-10-18T08:40:14.619Z,47.47
2018-10-18T08:42:43.165Z,48.83
2018-10-18T08:45:12.492Z,45.77
2018-10-18T08:47:41.220Z,44.50
2018-10-18T08:50:11.690Z,44.67
2018-10-18T08:52:40.580Z,43.37
2018-10-18T08:55:11.985Z,44.87
2018-10-18T08:57:40.510Z,41.13
2018-10-18T09:00:10.702Z,41.77
2018-10-18T09:02:39.850Z,42.50
2018-10-18T09:05:09.072Z,40.30
2018-10-18T09:07:38.189Z,42.57
2018-10-18T09:10:07.952Z,39.77
2018-10-18T09:12:37.097Z,42.90
2018-10-18T09:15:07.173Z,38.27
2018-10-18T09:17:36.209Z,41.60
2018-10-18T09:20:05.353Z,38.23
2018-10-18T09:22:34.568Z,39.10
2018-10-18T09:25:03.301Z,35.50
2018-10-18T09:27:31.892Z,37.63
2018-10-18T09:30:00.500Z,39.00
2018-10-18T09:32:29.148Z,37.27
2018-10-18T09:34:57.876Z,36.57
2018-10-18T09:37:26.468Z,35.37
2018-10-18T09:39:55.125Z,37.90
2018-10-18T09:42:23.664Z,34.93
2018-10-18T09:44:52.415Z,35.57
2018-10-18T09:47:20.940Z,34.17
2018-10-18T09:49:49.605Z,36.27
2018-10-18T09:52:18.180Z,34.63
2018-10-18T09:54:46.809Z,32.57
2018-10-18T09:57:15.365Z,33.93
2018-10-18T09:59:44.430Z,36.60
2018-10-18T10:02:18.233Z,33.53
2018-10-18T10:04:46.869Z,34.03
2018-10-18T10:07:15.492Z,36.00
2018-10-18T10:09:43.984Z,36.83
2018-10-18T10:12:12.750Z,33.77
2018-10-18T10:14:41.488Z,35.17
2018-10-18T10:17:10.224Z,32.73
2018-10-18T10:19:38.761Z,33.60
2018-10-18T10:22:07.512Z,32.03
2018-10-18T10:24:36.100Z,33.00
2018-10-18T10:27:04.733Z,33.90
2018-10-18T10:29:33.304Z,34.17
2018-10-18T10:32:01.869Z,34.73
2018-10-18T10:34:30.940Z,35.27
2018-10-18T10:36:59.629Z,31.20
2018-10-18T10:39:28.230Z,32.27
2018-10-18T10:41:56.928Z,33.17
2018-10-18T10:44:25.460Z,33.37
2018-10-18T10:46:54.040Z,33.80
2018-10-18T10:49:23.125Z,34.27
2018-10-18T10:51:51.915Z,34.10
2018-10-18T10:54:20.496Z,33.60
2018-10-18T10:56:49.240Z,34.57
2018-10-18T10:59:19.217Z,31.03
2018-10-18T11:01:48.004Z,33.73
2018-10-18T11:04:16.650Z,33.47
2018-10-18T11:06:45.349Z,32.97
2018-10-18T11:09:14.013Z,33.90
2018-10-18T11:11:42.941Z,30.77
2018-10-18T11:14:11.620Z,29.70
2018-10-18T11:16:40.221Z,31.27
2018-10-18T11:19:09.032Z,31.97
2018-10-18T11:21:37.644Z,34.00
2018-10-18T11:24:06.367Z,33.27
2018-10-18T11:26:34.946Z,33.37
2018-10-18T11:29:03.615Z,34.17
2018-10-18T11:31:32.161Z,30.70
2018-10-18T11:34:01.016Z,31.97
2018-10-18T11:36:29.724Z,32.37
2018-10-18T11:38:58.270Z,31.93
2018-10-18T11:41:27.455Z,31.50
2018-10-18T11:43:56.012Z,31.97
2018-10-18T11:46:24.665Z,34.40
2018-10-18T11:48:53.805Z,31.70
2018-10-18T11:51:22.523Z,31.80
2018-10-18T11:53:51.133Z,30.80
2018-10-18T11:56:19.713Z,31.00
2018-10-18T11:58:48.320Z,30.10
2018-10-18T12:01:17.112Z,31.83
2018-10-18T12:03:46.007Z,32.93
2018-10-18T12:06:14.605Z,28.10
2018-10-18T12:08:43.161Z,28.90
2018-10-18T12:11:11.963Z,31.13
2018-10-18T12:13:41.322Z,30.40
2018-10-18T12:16:10.297Z,28.50
2018-10-18T12:18:38.953Z,28.40
2018-10-18T12:21:07.685Z,28.97
2018-10-18T12:23:36.348Z,29.43
2018-10-18T12:26:05.337Z,30.67
2018-10-18T12:28:34.253Z,27.30
2018-10-18T12:31:03.064Z,28.60
2018-10-18T12:33:31.956Z,29.77
2018-10-18T12:36:00.522Z,28.80
2018-10-18T12:38:29.317Z,29.00
2018-10-18T12:40:58.285Z,24.57
2018-10-18T12:43:26.793Z,24.40
2018-10-18T12:45:55.465Z,27.67
2018-10-18T12:48:33.847Z,25.80
2018-10-18T12:51:02.317Z,26.87
2018-10-18T12:53:31.032Z,29.00
2018-10-18T12:56:00.035Z,25.33
2018-10-18T12:58:28.643Z,24.13
2018-10-18T13:00:57.294Z,27.50
2018-10-18T13:03:26.057Z,27.90
2018-10-18T13:05:54.679Z,26.07
2018-10-18T13:08:23.230Z,31.30
2018-10-18T13:10:52.069Z,29.37
2018-10-18T13:13:20.652Z,27.67
2018-10-18T13:15:49.334Z,25.33
2018-10-18T13:18:18.849Z,24.00
2018-10-18T13:20:47.448Z,22.73
2018-10-18T13:23:16.113Z,23.80
2018-10-18T13:25:44.876Z,23.70
2018-10-18T13:28:13.557Z,25.07
2018-10-18T13:30:42.209Z,25.50
2018-10-18T13:33:10.997Z,24.40
2018-10-18T13:35:39.647Z,26.37
2018-10-18T13:38:08.320Z,23.40
2018-10-18T13:40:37.276Z,24.40
2018-10-18T13:43:06.048Z,26.77
2018-10-18T13:45:34.693Z,25.70
2018-10-18T13:48:03.737Z,25.50
2018-10-18T13:50:32.376Z,24.87
2018-10-18T13:53:01.369Z,23.50
2018-10-18T13:55:30.140Z,25.63
2018-10-18T13:57:58.722Z,29.10
2018-10-18T14:00:30.253Z,25.70
2018-10-18T14:02:58.959Z,26.90
2018-10-18T14:05:28.088Z,26.83
2018-10-18T14:07:57.312Z,29.10
2018-10-18T14:13:06.078Z,27.00
2018-10-18T14:15:34.863Z,28.87
2018-10-18T14:18:03.498Z,27.97
2018-10-18T14:20:33.179Z,30.43
2018-10-18T14:23:02.017Z,28.57
2018-10-18T14:25:30.628Z,29.90
2018-10-18T14:27:59.209Z,30.07
2018-10-18T14:30:27.968Z,28.70
2018-10-18T14:32:56.640Z,29.70
2018-10-18T14:35:25.364Z,31.30
2018-10-18T14:37:54.072Z,28.43
2018-10-18T14:40:22.702Z,29.87
2018-10-18T14:42:51.440Z,29.17
2018-10-18T14:45:20.111Z,29.30
2018-10-18T14:47:48.830Z,29.97
2018-10-18T14:50:17.644Z,30.10
2018-10-18T14:52:46.285Z,29.40
2018-10-18T14:55:14.964Z,28.63
2018-10-18T14:57:43.652Z,28.30
2018-10-18T15:00:13.425Z,29.03
2018-10-18T15:02:42.222Z,27.77
2018-10-18T15:05:11.850Z,28.93
2018-10-18T15:07:41.052Z,29.13
2018-10-18T15:10:13.181Z,32.57
2018-10-18T15:12:42.290Z,29.40
2018-10-18T15:15:12.304Z,28.90
2018-10-18T15:17:41.112Z,30.53
2018-10-18T15:20:10.765Z,28.77
2018-10-18T15:22:40.741Z,28.63
2018-10-18T15:25:10.492Z,28.87
2018-10-18T15:27:40.232Z,27.87
2018-10-18T15:30:09.835Z,29.43
2018-10-18T15:32:39.192Z,28.40
2018-10-18T15:35:09.309Z,30.00
2018-10-18T15:37:45.843Z,27.93
2018-10-18T15:40:14.468Z,34.17
2018-10-18T15:42:43.126Z,29.97
2018-10-18T15:45:11.858Z,30.53
2018-10-18T15:47:40.558Z,32.20
2018-10-18T15:50:10.856Z,33.23
2018-10-18T15:52:39.417Z,31.00
2018-10-18T15:55:08.657Z,31.57
2018-10-18T15:57:37.305Z,33.87
2018-10-18T16:00:08.107Z,32.43
2018-10-18T16:02:36.742Z,30.33
2018-10-18T16:05:05.892Z,35.03
2018-10-18T16:07:34.662Z,35.23
2018-10-18T16:10:03.514Z,36.43
2018-10-18T16:12:32.159Z,34.80
2018-10-18T16:15:00.853Z,37.43
2018-10-18T16:17:29.462Z,33.90
2018-10-18T16:19:58.081Z,33.40
2018-10-18T16:22:26.719Z,36.30
2018-10-18T16:24:55.285Z,36.30
2018-10-18T16:27:24.813Z,34.87
2018-10-18T16:29:53.396Z,36.80
2018-10-18T16:32:22.013Z,34.60
2018-10-18T16:34:50.724Z,33.50
2018-10-18T16:37:19.537Z,37.90
2018-10-18T16:39:48.061Z,32.30
2018-10-18T16:42:16.701Z,35.03
2018-10-18T16:44:45.413Z,36.70
2018-10-18T16:47:14.061Z,35.90
2018-10-18T16:49:42.703Z,34.03
2018-10-18T16:52:11.592Z,36.10
2018-10-18T16:54:40.336Z,37.60
2018-10-18T16:57:08.945Z,37.30
2018-10-18T16:59:37.682Z,37.00
2018-10-18T17:02:06.682Z,37.43
2018-10-18T17:04:35.379Z,34.73
2018-10-18T17:07:04.124Z,36.97
2018-10-18T17:09:32.668Z,38.13
2018-10-18T17:12:01.444Z,39.00
2018-10-18T17:14:30.249Z,37.30
2018-10-18T17:16:58.877Z,39.13
2018-10-18T17:19:27.490Z,36.80
2018-10-18T17:21:56.138Z,39.97
2018-10-18T17:24:24.703Z,37.90
2018-10-18T17:26:53.308Z,41.20
2018-10-18T17:29:21.993Z,41.20
2018-10-18T17:31:50.556Z,43.87
2018-10-18T17:34:19.607Z,41.47
2018-10-18T17:36:48.162Z,41.17
2018-10-18T17:39:20.342Z,46.00
2018-10-18T17:41:48.992Z,42.00
2018-10-18T17:44:17.638Z,42.63
2018-10-18T17:46:46.285Z,43.83
2018-10-18T17:49:15.017Z,44.33
2018-10-18T17:51:43.591Z,41.07
2018-10-18T17:54:12.169Z,40.13
2018-10-18T17:56:40.820Z,39.57
2018-10-18T17:59:09.423Z,42.00
2018-10-18T18:01:38.025Z,43.10
2018-10-18T18:04:07.224Z,41.63
2018-10-18T18:06:35.921Z,40.30
2018-10-18T18:09:05.066Z,42.00
2018-10-18T18:11:33.913Z,42.17
2018-10-18T18:14:02.756Z,37.17
2018-10-18T18:16:31.780Z,40.67
2018-10-18T18:19:01.012Z,41.17
2018-10-18T18:21:29.574Z,40.80
2018-10-18T18:23:58.172Z,38.47
2018-10-18T18:26:32.657Z,39.00
2018-10-18T18:28:55.585Z,38.50
2018-10-18T18:31:24.418Z,39.13
2018-10-18T18:33:53.233Z,41.70
2018-10-18T18:36:22.190Z,39.50
2018-10-18T18:38:50.846Z,38.77
2018-10-18T18:41:19.624Z,38.80
2018-10-18T18:43:48.228Z,40.30
2018-10-18T18:46:16.792Z,38.10
2018-10-18T18:48:45.571Z,36.90
2018-10-18T18:51:14.220Z,37.00
2018-10-18T18:53:42.740Z,40.33
2018-10-18T18:56:11.603Z,40.37
2018-10-18T18:58:40.189Z,42.40
2018-10-18T19:01:08.904Z,40.90
2018-10-18T19:03:37.727Z,41.17
2018-10-18T19:06:06.380Z,45.37
2018-10-18T19:08:34.949Z,44.17
2018-10-18T19:11:03.799Z,42.10
2018-10-18T19:13:32.428Z,43.93
2018-10-18T19:16:01.100Z,43.40
2018-10-18T19:18:29.909Z,41.90
2018-10-18T19:20:58.528Z,41.67
2018-10-18T19:23:27.292Z,38.17
2018-10-18T19:25:56.049Z,41.03
2018-10-18T19:28:24.669Z,39.80
2018-10-18T19:30:53.657Z,41.17
2018-10-18T19:33:22.249Z,41.70
2018-10-18T19:35:51.047Z,37.43
2018-10-18T19:38:19.786Z,37.50
2018-10-18T19:40:51.360Z,39.93
2018-10-18T19:43:19.932Z,38.17
2018-10-18T19:45:48.704Z,38.67
2018-10-18T19:48:17.750Z,41.70
2018-10-18T19:50:46.417Z,35.93
2018-10-18T19:53:14.997Z,35.97
2018-10-18T19:55:43.941Z,38.13
2018-10-18T19:58:12.554Z,37.00
2018-10-18T20:00:41.132Z,36.37
2018-10-18T20:03:09.849Z,32.53
2018-10-18T20:05:38.372Z,37.10
2018-10-18T20:08:07.002Z,35.63
2018-10-18T20:10:35.712Z,36.47
2018-10-18T20:13:04.489Z,37.50
2018-10-18T20:15:33.064Z,34.03
2018-10-18T20:18:02.089Z,36.60
2018-10-18T20:20:30.672Z,34.33
2018-10-18T20:22:59.268Z,31.27
2018-10-18T20:25:28.038Z,36.23
2018-10-18T20:27:56.645Z,31.50
2018-10-18T20:30:25.261Z,34.90
2018-10-18T20:32:53.945Z,37.23
2018-10-18T20:35:22.574Z,35.20
2018-10-18T20:37:51.104Z,35.50
2018-10-18T20:40:19.905Z,32.83
2018-10-18T20:42:48.656Z,37.20
2018-10-18T20:45:22.594Z,35.50
2018-10-18T20:47:51.316Z,33.17
2018-10-18T20:50:19.784Z,34.67
2018-10-18T20:52:48.521Z,34.43
2018-10-18T20:55:17.078Z,33.73
2018-10-18T20:57:45.709Z,30.87
2018-10-18T21:00:14.446Z,33.97
2018-10-18T21:02:43.088Z,29.13
2018-10-18T21:05:11.692Z,32.23
2018-10-18T21:07:40.413Z,33.60
2018-10-18T21:10:11.889Z,33.10
2018-10-18T21:12:40.440Z,30.10
2018-10-18T21:15:09.131Z,31.50
2018-10-18T21:17:37.605Z,28.77
2018-10-18T21:20:06.617Z,29.40
2018-10-18T21:22:35.444Z,28.33
2018-10-18T21:25:04.344Z,28.60
2018-10-18T21:27:33.192Z,28.97
2018-10-18T21:30:01.848Z,28.47
2018-10-18T21:32:30.424Z,27.80
2018-10-18T21:34:59.287Z,29.27
2018-10-18T21:37:27.838Z,27.90
2018-10-18T21:39:56.482Z,27.37
2018-10-18T21:42:25.172Z,28.57
2018-10-18T21:44:54.485Z,30.10
2018-10-18T21:47:23.592Z,29.63
2018-10-18T21:49:52.485Z,26.67
2018-10-18T21:52:21.133Z,29.20
2018-10-18T21:54:49.736Z,28.97
2018-10-18T21:57:18.477Z,27.00
2018-10-18T21:59:47.166Z,26.77
2018-10-18T22:02:15.748Z,29.20
2018-10-18T22:04:44.484Z,29.60
2018-10-18T22:07:13.073Z,26.60
2018-10-18T22:09:41.654Z,27.37
2018-10-18T22:12:10.290Z,29.23
2018-10-18T22:14:38.906Z,29.10
2018-10-18T22:17:07.516Z,30.30
2018-10-18T22:19:36.370Z,29.10
2018-10-18T22:22:05.124Z,27.37
2018-10-18T22:24:33.728Z,29.03
2018-10-18T22:27:02.554Z,27.37
2018-10-18T22:29:31.120Z,31.43
2018-10-18T22:31:59.702Z,29.73
2018-10-18T22:34:28.441Z,29.77
2018-10-18T22:36:56.997Z,29.97
2018-10-18T22:39:25.625Z,28.67
2018-10-18T22:41:54.448Z,28.97
2018-10-18T22:44:22.984Z,28.63
2018-10-18T22:46:51.600Z,32.47
2018-10-18T22:49:20.429Z,30.37
2018-10-18T22:51:48.980Z,34.70
2018-10-18T22:54:17.541Z,32.03
2018-10-18T22:56:46.230Z,32.80
2018-10-18T22:59:14.813Z,32.80
2018-10-18T23:01:43.596Z,32.47
2018-10-18T23:04:12.160Z,26.83
2018-10-18T23:06:40.776Z,20.47
2018-10-18T23:09:11.638Z,20.47
2018-10-18T23:11:40.257Z,27.13
2018-10-18T23:14:09.849Z,25.77
2018-10-18T23:16:39.179Z,29.13
2018-10-18T23:19:08.857Z,28.37
2018-10-18T23:21:37.409Z,29.07
2018-10-18T23:24:06.341Z,30.00
2018-10-18T23:26:34.921Z,30.30
2018-10-18T23:29:03.494Z,31.07
2018-10-18T23:31:32.081Z,28.23
2018-10-18T23:34:00.649Z,28.87
2018-10-18T23:36:29.256Z,30.20
2018-10-18T23:38:57.902Z,30.83
2018-10-18T23:41:26.514Z,32.00
2018-10-18T23:43:55.201Z,29.43
2018-10-18T23:46:23.841Z,31.17
2018-10-18T23:48:52.488Z,32.13
2018-10-18T23:51:21.025Z,32.33
2018-10-18T23:53:49.685Z,33.50
2018-10-18T23:56:18.446Z,30.37
2018-10-18T23:58:47.049Z,32.77
